• Join FlightAware (Why Join?)
  • Login
  • US Flag 
11:38AM EDT


 

Airport Tracker/Info


-or-


 

Live Flight TrackerFlight Track Log ✈ SLI2069 ✈ 2013年 10月 24日 ✈ MMLP / LAP - MMMX / MEX

Flight Track Log - Related Links

Times and Time Zones

All times are in EDT time to prevent confusion due to time zone crossing. See the SLI2069 flight status page for this flight to view local times or setup timezone preferences in your user account.

Time Position Orientation Groundspeed Altitude Reporting Facility
EDT Latitude Longitude Course Direction KTS MPH feet Rate Location/Type
09:02AM 22.7072 -106.7533 112° Southeast  Level Estimated
09:03AM 22.6670 -106.6513 113° Southeast  Level Estimated
09:04AM 22.6267 -106.5493 113° Southeast  Level Estimated
09:05AM 22.5864 -106.4474 113° Southeast  Level Estimated
09:06AM 22.5460 -106.3455 113° Southeast  Level Estimated
09:07AM 22.5055 -106.2437 113° Southeast  Level Estimated
09:08AM 22.4650 -106.1420 113° Southeast  Level Estimated
09:09AM 22.4244 -106.0403 113° Southeast  Level Estimated
09:10AM 22.3837 -105.9387 113° Southeast  Level Estimated
09:11AM 22.3430 -105.8372 113° Southeast  Level Estimated
09:12AM 22.3022 -105.7357 113° Southeast  Level Estimated
09:13AM 22.2614 -105.6342 114° Southeast  Level Estimated
09:14AM 22.2205 -105.5329 114° Southeast  Level Estimated
09:15AM 22.1795 -105.4315 114° Southeast  Level Estimated
09:16AM 22.1384 -105.3303 114° Southeast  Level Estimated
09:17AM 22.0973 -105.2291 114° Southeast  Level Estimated
09:18AM 22.0562 -105.1280 114° Southeast  Level Estimated
09:19AM 22.0149 -105.0269 114° Southeast  Level Estimated
09:20AM 21.9737 -104.9258 114° Southeast  Level Estimated
09:21AM 21.9323 -104.8249 114° Southeast  Level Estimated
09:22AM 21.8909 -104.7240 114° Southeast  Level Estimated
09:23AM 21.8494 -104.6231 114° Southeast  Level Estimated
09:24AM 21.8079 -104.5223 114° Southeast  Level Estimated
09:25AM 21.7663 -104.4216 114° Southeast  Level Estimated
09:26AM 21.7246 -104.3210 114° Southeast  Level Estimated
09:27AM 21.6829 -104.2203 114° Southeast  Level Estimated
09:28AM 21.6411 -104.1198 114° Southeast  Level Estimated
09:29AM 21.5993 -104.0193 114° Southeast  Level Estimated
09:30AM 21.5574 -103.9189 114° Southeast  Level Estimated
09:31AM 21.5154 -103.8185 114° Southeast  Level Estimated
09:32AM 21.4734 -103.7181 114° Southeast  Level Estimated
09:33AM 21.4314 -103.6179 114° Southeast  Level Estimated
09:34AM 21.3892 -103.5177 114° Southeast  Level Estimated
09:35AM 21.3470 -103.4175 114° Southeast  Level Estimated
09:36AM 21.3048 -103.3174 114° Southeast  Level Estimated
09:37AM 21.2624 -103.2174 114° Southeast  Level Estimated
09:38AM 21.2201 -103.1174 114° Southeast  Level Estimated
09:39AM 21.1776 -103.0175 114° Southeast  Level Estimated
09:40AM 21.1351 -102.9176 115° Southeast  Level Estimated
09:41AM 21.0926 -102.8178 115° Southeast  Level Estimated
09:42AM 21.0500 -102.7181 115° Southeast  Level Estimated
09:43AM 21.0073 -102.6184 115° Southeast  Level Estimated
09:44AM 20.9646 -102.5188 115° Southeast  Level Estimated
09:45AM 20.9218 -102.4192 115° Southeast  Level Estimated
09:46AM 20.8790 -102.3197 115° Southeast  Level Estimated
09:47AM 20.8361 -102.2202 115° Southeast  Level Estimated
09:48AM 20.7931 -102.1208 115° Southeast  Level Estimated
09:49AM 20.7501 -102.0215 115° Southeast  Level Estimated
09:50AM 20.7070 -101.9222 115° Southeast  Level Estimated
09:51AM 20.6639 -101.8230 115° Southeast  Level Estimated
09:52AM 20.6207 -101.7238 115° Southeast  Level Estimated
09:53AM 20.5775 -101.6246 115° Southeast  Level Estimated
09:54AM 20.5342 -101.5256 115° Southeast  Level Estimated
09:55AM 20.4908 -101.4266 115° Southeast  Level Estimated
09:56AM 20.4474 -101.3276 115° Southeast  Level Estimated
09:57AM 20.4040 -101.2287 115° Southeast  Level Estimated
09:58AM 20.3604 -101.1299 115° Southeast  Level Estimated
09:59AM 20.3169 -101.0311 115° Southeast  Level Estimated
10:00AM 20.2732 -100.9324 115° Southeast  Level Estimated
10:01AM 20.2295 -100.8337 115° Southeast  Level Estimated
10:02AM 20.1858 -100.7351 115° Southeast  Level Estimated
10:03AM 20.1420 -100.6365 115° Southeast  Level Estimated
10:04AM 20.0982 -100.5380 115° Southeast  Level Estimated
10:05AM 20.0543 -100.4395 115° Southeast  Level Estimated
10:06AM 20.0103 -100.3411 115° Southeast  Level Estimated
10:07AM 19.9663 -100.2428 115° Southeast  Level Estimated
10:08AM 19.9222 -100.1445 115° Southeast  Level Estimated
10:09AM 19.8781 -100.0463 116° Southeast  Level Estimated
10:10AM 19.8339 -99.9481 116° Southeast  Level Estimated
10:11AM 19.7897 -99.8500 116° Southeast  Level Estimated
10:12AM 19.7454 -99.7519 116° Southeast  Level Estimated
10:13AM 19.7011 -99.6539 116° Southeast  Level Estimated
10:14AM 19.6567 -99.5559 116° Southeast  Level Estimated
10:15AM 19.6122 -99.4580 116° Southeast  Level Estimated
10:16AM 19.5677 -99.3602 116° Southeast  Level Estimated
10:17AM 19.5232 -99.2624 116° Southeast  Level Estimated
10:18AM 19.4786 -99.1646 116° Southeast  Level Estimated
10:19AM 19.4363 -99.0721 116° Southeast  Level Estimated
10:20AM 19.4363 -99.0721 43° Northeast  Level Estimated
10:21AM 19.4363 -99.0721 43° Northeast  Level Estimated
10:22AM 19.4363 -99.0721 43° Northeast  Level Estimated
10:23AM 19.4363 -99.0721 43° Northeast  Level Estimated
10:24AM 19.4363 -99.0721 43° Northeast  Level Estimated
10:25AM 19.4363 -99.0721 43° Northeast  Level Estimated
10:26AM 19.4363 -99.0721 43° Northeast  Level Estimated
10:27AM 19.4363 -99.0721 43° Northeast  Level Estimated
10:28AM 19.4363 -99.0721 43° Northeast  Level Estimated
10:29AM 19.4363 -99.0721 43° Northeast  Level Estimated
10:30AM 19.4363 -99.0721 43° Northeast  Level Estimated
10:31AM 19.4363 -99.0721 43° Northeast  Level Estimated
10:32AM 19.4363 -99.0721 43° Northeast  Level Estimated
10:33AM 19.4363 -99.0721 43° Northeast  Level Estimated
10:34AM 19.4363 -99.0721 43° Northeast  Level Estimated
10:35AM 19.4363 -99.0721 43° Northeast  Level Estimated